Time;durP1;ratioP1;P1;durP2;ratioP2;P2;SDS_P1;SDS_P2;PMS_P1;PMS_P2;Temp;Humidity;BMP_temperature;BMP_pressure;BME280_temperature;BME280_humidity;BME280_pressure;Samples;Min_cycle;Max_cycle;Signal;HPM_P1;HPM_P2
2023/01/12 00:00:38;;;;;;;2.17;1.38;;;;;;;7.31;100.00;98767.59;4124181;28;20225;-47
2023/01/12 00:02:40;;;;;;;8.20;2.35;;;;;;;7.32;100.00;98760.25;4120905;28;20252;-46
2023/01/12 00:04:42;;;;;;;2.53;2.20;;;;;;;7.31;100.00;98764.88;4138817;28;20823;-46
2023/01/12 00:06:44;;;;;;;3.67;2.22;;;;;;;7.32;100.00;98752.06;4137069;28;20248;-46
2023/01/12 00:08:47;;;;;;;6.00;1.42;;;;;;;7.29;100.00;98749.81;4137120;28;20241;-46
2023/01/12 00:10:54;;;;;;;4.55;1.77;;;;;;;7.24;100.00;98741.47;4134251;28;20257;-46
2023/01/12 00:12:57;;;;;;;3.40;2.20;;;;;;;7.21;100.00;98741.94;4136047;28;20687;-46
2023/01/12 00:14:58;;;;;;;5.28;1.58;;;;;;;7.24;100.00;98744.19;4150004;28;20225;-45
2023/01/12 00:17:00;;;;;;;4.28;1.98;;;;;;;7.23;100.00;98737.09;4137386;28;20320;-48
2023/01/12 00:19:14;;;;;;;2.30;1.20;;;;;;;7.21;100.00;98733.78;4129881;28;20205;-47
2023/01/12 00:21:16;;;;;;;4.15;2.08;;;;;;;7.19;100.00;98741.31;4136698;28;20249;-46
2023/01/12 00:23:20;;;;;;;2.35;1.35;;;;;;;7.27;100.00;98741.00;4134157;28;20205;-46
2023/01/12 00:25:21;;;;;;;2.72;2.08;;;;;;;7.23;100.00;98728.94;4123754;28;20260;-46
2023/01/12 00:27:23;;;;;;;6.45;2.08;;;;;;;7.23;100.00;98726.22;4120939;28;20297;-46
2023/01/12 00:29:25;;;;;;;5.00;1.70;;;;;;;7.19;100.00;98724.97;4135610;28;20241;-47
2023/01/12 00:31:27;;;;;;;7.82;1.80;;;;;;;7.20;100.00;98705.72;4150782;28;20225;-46
2023/01/12 00:33:29;;;;;;;5.30;2.08;;;;;;;7.22;100.00;98709.03;4167092;28;20208;-45
2023/01/12 00:35:30;;;;;;;1.85;1.67;;;;;;;7.25;100.00;98707.75;4138301;28;20304;-46
2023/01/12 00:37:33;;;;;;;4.20;2.03;;;;;;;7.26;100.00;98706.69;4138507;28;20236;-46
2023/01/12 00:39:38;;;;;;;5.80;1.60;;;;;;;7.29;100.00;98712.53;4140187;28;20240;-46
2023/01/12 00:46:31;;;;;;;19.13;2.50;;;;;;;7.38;100.00;98718.50;4140240;28;20236;-46
2023/01/12 00:48:33;;;;;;;3.30;2.60;;;;;;;7.38;100.00;98702.19;4139325;28;20209;-46
2023/01/12 00:50:34;;;;;;;3.88;1.92;;;;;;;7.35;100.00;98702.66;4136950;28;20726;-46
2023/01/12 00:52:36;;;;;;;1.80;1.38;;;;;;;7.37;100.00;98709.50;4153542;28;20223;-46
2023/01/12 00:54:38;;;;;;;5.88;2.20;;;;;;;7.35;100.00;98702.66;4138986;28;20213;-47
2023/01/12 00:56:40;;;;;;;9.80;3.92;;;;;;;7.41;100.00;98701.75;4141438;28;20344;-46
2023/01/12 00:58:41;;;;;;;8.10;2.08;;;;;;;7.42;100.00;98719.75;4136701;28;20610;-46
2023/01/12 01:00:43;;;;;;;1.73;1.00;;;;;;;7.45;100.00;98719.28;4137936;28;20313;-46
2023/01/12 01:02:45;;;;;;;6.28;1.85;;;;;;;7.44;100.00;98704.00;4119535;28;22332;-46
2023/01/12 01:04:48;;;;;;;7.40;2.13;;;;;;;7.51;100.00;98696.59;4137051;28;20216;-47
2023/01/12 01:06:50;;;;;;;13.25;1.92;;;;;;;7.50;100.00;98694.94;4141368;28;20217;-46
2023/01/12 01:08:52;;;;;;;14.45;2.42;;;;;;;7.48;100.00;98702.50;4137554;28;20302;-46
2023/01/12 01:11:01;;;;;;;10.27;1.35;;;;;;;7.44;100.00;98714.91;4139694;28;20317;-46
2023/01/12 01:13:03;;;;;;;7.15;1.70;;;;;;;7.50;100.00;98708.56;4132456;28;21090;-46
2023/01/12 01:15:05;;;;;;;8.98;2.42;;;;;;;7.51;100.00;98712.94;4152540;28;20236;-48
2023/01/12 01:17:07;;;;;;;6.60;1.85;;;;;;;7.47;100.00;98728.03;4137968;28;20230;-47
2023/01/12 01:19:09;;;;;;;4.10;1.40;;;;;;;7.45;100.00;98717.41;4135437;28;20209;-46
2023/01/12 01:21:12;;;;;;;5.72;1.33;;;;;;;7.43;100.00;98716.78;4136123;28;20257;-47
2023/01/12 01:23:14;;;;;;;6.82;1.90;;;;;;;7.43;100.00;98716.78;4152185;28;20224;-46
2023/01/12 01:25:16;;;;;;;3.53;2.17;;;;;;;7.46;100.00;98719.06;4153281;28;20300;-47
2023/01/12 01:27:19;;;;;;;4.35;2.72;;;;;;;7.48;100.00;98707.97;4139271;28;20362;-47
2023/01/12 01:29:20;;;;;;;3.13;1.70;;;;;;;7.47;100.00;98709.84;4138146;28;20716;-47
2023/01/12 01:31:24;;;;;;;3.58;1.73;;;;;;;7.47;100.00;98717.16;4137213;28;20291;-47
2023/01/12 01:33:26;;;;;;;7.30;1.77;;;;;;;7.49;100.00;98710.44;4137010;28;20372;-47
2023/01/12 01:35:27;;;;;;;11.23;2.35;;;;;;;7.49;100.00;98725.94;4140039;28;20241;-45
2023/01/12 01:37:30;;;;;;;6.53;2.33;;;;;;;7.50;100.00;98708.56;4135540;28;20662;-47
2023/01/12 01:39:32;;;;;;;4.80;1.45;;;;;;;7.47;100.00;98708.97;4136024;28;20205;-47
2023/01/12 01:41:33;;;;;;;8.15;1.60;;;;;;;7.50;100.00;98708.56;4137886;28;20293;-47
2023/01/12 01:43:56;;;;;;;8.20;2.17;;;;;;;7.46;100.00;98701.88;4134611;28;20245;-46
2023/01/12 01:46:05;;;;;;;2.15;2.05;;;;;;;7.48;100.00;98703.31;4138884;28;20683;-47
2023/01/12 01:48:10;;;;;;;25.42;2.33;;;;;;;7.49;100.00;98693.28;4126927;28;20804;-46
2023/01/12 01:50:17;;;;;;;4.20;2.08;;;;;;;7.37;100.00;98697.81;4141143;28;20240;-47
2023/01/12 01:52:34;;;;;;;3.65;1.95;;;;;;;7.44;100.00;98684.94;4137294;28;20304;-47
2023/01/12 01:54:43;;;;;;;1.98;1.52;;;;;;;7.44;100.00;98685.78;4137944;28;20813;-46
2023/01/12 01:56:45;;;;;;;4.43;1.80;;;;;;;7.47;100.00;98684.50;4139031;28;20302;-46
2023/01/12 01:58:58;;;;;;;5.80;1.88;;;;;;;7.48;100.00;98681.53;4137202;28;20684;-46
2023/01/12 02:01:00;;;;;;;4.05;2.20;;;;;;;7.45;100.00;98678.44;4150720;28;20316;-47
2023/01/12 02:03:03;;;;;;;8.82;2.22;;;;;;;7.46;100.00;98683.66;4140087;28;20213;-47
2023/01/12 02:05:06;;;;;;;4.20;1.45;;;;;;;7.49;100.00;98696.00;4140099;28;20372;-47
2023/01/12 02:07:07;;;;;;;5.82;2.33;;;;;;;7.48;100.00;98697.06;4136365;28;20214;-47
2023/01/12 02:09:14;;;;;;;7.60;1.95;;;;;;;7.47;100.00;98689.94;4139487;28;20240;-47
2023/01/12 02:16:21;;;;;;;3.72;1.30;;;;;;;7.53;100.00;98700.75;4138632;28;20233;-46
2023/01/12 02:18:34;;;;;;;11.32;2.45;;;;;;;7.53;100.00;98678.13;4139581;28;20795;-46
2023/01/12 02:20:54;;;;;;;4.22;2.83;;;;;;;7.53;100.00;98678.97;4142730;28;20245;-47
2023/01/12 02:23:08;;;;;;;9.70;1.60;;;;;;;7.52;100.00;98687.38;4143465;28;20201;-46
2023/01/12 02:25:30;;;;;;;5.65;1.83;;;;;;;7.55;100.00;98678.75;4138699;28;20652;-47
2023/01/12 02:27:42;;;;;;;5.03;2.58;;;;;;;7.56;100.00;98692.13;4116451;28;20209;-47
2023/01/12 02:30:07;;;;;;;2.13;1.70;;;;;;;7.56;100.00;98697.56;4136210;28;20693;-47
2023/01/12 02:32:17;;;;;;;10.00;2.08;;;;;;;7.55;100.00;98687.75;4138828;28;20260;-47
2023/01/12 02:34:34;;;;;;;4.03;1.70;;;;;;;7.56;100.00;98688.59;4135876;28;20221;-47
2023/01/12 02:36:46;;;;;;;6.47;2.88;;;;;;;7.60;100.00;98689.78;4151894;28;20638;-47
2023/01/12 02:39:07;;;;;;;3.28;1.98;;;;;;;7.55;100.00;98682.31;4135643;28;20256;-46
2023/01/12 02:42:39;;;;;;;5.13;1.13;;;;;;;7.54;100.00;98674.34;4134380;28;20320;-47
2023/01/12 02:43:42;;;;;;;3.90;1.88;;;;;;;7.56;100.00;98680.41;4137040;28;20785;-46
2023/01/12 02:45:56;;;;;;;7.38;3.10;;;;;;;7.55;100.00;98682.31;4138221;28;20240;-46
2023/01/12 02:48:22;;;;;;;4.00;1.55;;;;;;;7.56;100.00;98683.97;4141038;28;20625;-46
2023/01/12 02:50:42;;;;;;;4.18;1.52;;;;;;;7.59;100.00;98682.69;4150231;28;21011;-47
2023/01/12 02:52:47;;;;;;;8.73;1.33;;;;;;;7.58;100.00;98681.03;4135316;28;20202;-47
2023/01/12 02:54:50;;;;;;;7.18;3.28;;;;;;;7.59;100.00;98699.88;4135456;28;20659;-46
2023/01/12 02:56:54;;;;;;;1.33;1.23;;;;;;;7.57;100.00;98696.50;4135777;28;20209;-46
2023/01/12 02:59:00;;;;;;;8.65;2.10;;;;;;;7.60;100.00;98706.13;4151538;28;20204;-46
2023/01/12 03:01:02;;;;;;;2.30;2.10;;;;;;;7.63;100.00;98700.25;4134765;28;20291;-47
2023/01/12 03:03:05;;;;;;;3.42;1.85;;;;;;;7.64;100.00;98696.44;4136987;28;20668;-47
2023/01/12 03:05:08;;;;;;;1.30;1.15;;;;;;;7.60;100.00;98700.69;4136583;28;20607;-46
2023/01/12 03:07:18;;;;;;;6.70;1.48;;;;;;;7.64;100.00;98699.19;4122877;28;20256;-46
2023/01/12 03:09:19;;;;;;;16.23;3.50;;;;;;;7.62;100.00;98699.41;4147996;28;20244;-47
2023/01/12 03:11:21;;;;;;;12.90;2.45;;;;;;;7.64;100.00;98699.19;4139372;28;20316;-47
2023/01/12 03:13:26;;;;;;;7.47;1.23;;;;;;;7.63;100.00;98682.00;4135449;28;20237;-47
2023/01/12 03:15:27;;;;;;;2.75;1.90;;;;;;;7.63;100.00;98683.91;4134153;28;20225;-46
2023/01/12 03:17:32;;;;;;;5.45;2.10;;;;;;;7.62;100.00;98687.69;4129754;28;20260;-47
2023/01/12 03:19:35;;;;;;;7.03;2.13;;;;;;;7.61;100.00;98686.03;4150305;28;20205;-45
2023/01/12 03:21:41;;;;;;;3.13;1.40;;;;;;;7.63;100.00;98683.91;4136740;28;20328;-46
2023/01/12 03:23:53;;;;;;;2.95;1.33;;;;;;;7.64;100.00;98675.50;4136010;28;20294;-46
2023/01/12 03:25:56;;;;;;;1.73;1.30;;;;;;;7.66;100.00;98680.72;4139294;28;20743;-46
2023/01/12 03:27:59;;;;;;;2.35;1.73;;;;;;;7.66;100.00;98688.88;4136796;28;20293;-46
2023/01/12 03:30:21;;;;;;;5.38;1.38;;;;;;;7.65;100.00;98677.16;4137472;28;20672;-47
2023/01/12 03:32:23;;;;;;;3.13;1.60;;;;;;;7.66;100.00;98677.97;4150919;28;20205;-46
2023/01/12 03:34:26;;;;;;;4.50;1.85;;;;;;;7.70;100.00;98662.88;4134062;28;20582;-46
2023/01/12 03:36:45;;;;;;;2.63;1.30;;;;;;;7.69;100.00;98669.38;4135318;28;20289;-47
2023/01/12 03:39:26;;;;;;;8.75;2.00;;;;;;;7.70;100.00;98665.59;4134965;28;20671;-46
2023/01/12 03:41:37;;;;;;;2.47;1.33;;;;;;;7.67;100.00;98663.31;4121734;28;20316;-46
2023/01/12 03:44:00;;;;;;;5.15;2.30;;;;;;;7.66;100.00;98667.94;4135771;28;20233;-46
2023/01/12 03:46:10;;;;;;;2.42;1.58;;;;;;;7.64;100.00;98669.22;4135866;28;20233;-46
2023/01/12 03:48:20;;;;;;;3.20;2.65;;;;;;;7.67;100.00;98663.31;4134896;28;20236;-47
2023/01/12 03:50:29;;;;;;;4.13;2.17;;;;;;;7.66;100.00;98667.09;4129970;28;20252;-46
2023/01/12 03:52:34;;;;;;;3.53;1.65;;;;;;;7.66;100.00;98658.91;4134085;28;20232;-46
2023/01/12 03:54:36;;;;;;;5.03;2.03;;;;;;;7.68;100.00;98659.53;4148765;28;20201;-47
2023/01/12 03:56:40;;;;;;;5.75;2.00;;;;;;;7.68;100.00;98662.28;4139398;28;20212;-46
2023/01/12 03:58:42;;;;;;;3.45;1.77;;;;;;;7.70;100.00;98646.53;4135369;28;20252;-46
2023/01/12 04:00:44;;;;;;;7.70;2.58;;;;;;;7.65;100.00;98649.09;4138597;28;20249;-46
2023/01/12 04:02:46;;;;;;;11.90;1.75;;;;;;;7.70;100.00;98657.41;4137545;28;20229;-47
2023/01/12 04:04:47;;;;;;;7.90;2.20;;;;;;;7.67;100.00;98653.25;4142938;28;20750;-48
2023/01/12 04:06:49;;;;;;;2.00;1.67;;;;;;;7.71;100.00;98648.19;4122315;28;20214;-46
2023/01/12 04:08:51;;;;;;;16.23;1.77;;;;;;;7.66;100.00;98672.53;4138079;28;20292;-47
2023/01/12 04:10:53;;;;;;;4.07;1.83;;;;;;;7.69;100.00;98667.47;4139417;28;20260;-46
2023/01/12 04:12:54;;;;;;;1.52;1.23;;;;;;;7.68;100.00;98663.09;4142273;28;20312;-46
2023/01/12 04:14:56;;;;;;;7.05;1.63;;;;;;;7.68;100.00;98654.91;4138408;28;20234;-46
2023/01/12 04:16:58;;;;;;;6.03;2.45;;;;;;;7.64;100.00;98652.88;4141037;28;20296;-47
2023/01/12 04:18:59;;;;;;;7.60;3.00;;;;;;;7.61;100.00;98648.72;4137219;28;20791;-47
2023/01/12 04:21:01;;;;;;;5.72;2.08;;;;;;;7.61;100.00;98645.19;4136675;28;20268;-46
2023/01/12 04:23:03;;;;;;;8.63;1.70;;;;;;;7.61;100.00;98658.78;4138353;28;20206;-47
2023/01/12 04:25:05;;;;;;;3.70;2.45;;;;;;;7.60;100.00;98657.94;4143576;28;20263;-46
2023/01/12 04:27:10;;;;;;;5.10;1.63;;;;;;;7.59;100.00;98647.28;4140671;28;20209;-46
2023/01/12 04:29:11;;;;;;;8.88;2.22;;;;;;;7.59;100.00;98644.56;4139828;28;20201;-46
2023/01/12 04:31:13;;;;;;;4.25;2.15;;;;;;;7.58;100.00;98648.34;4138380;28;20268;-48
2023/01/12 04:33:15;;;;;;;11.93;2.10;;;;;;;7.58;100.00;98635.56;4139085;28;20213;-46
2023/01/12 04:35:17;;;;;;;9.82;2.95;;;;;;;7.56;100.00;98639.59;4137897;28;20244;-47
2023/01/12 04:37:19;;;;;;;3.90;2.47;;;;;;;7.58;100.00;98637.44;4135095;28;20694;-46
2023/01/12 04:39:21;;;;;;;2.92;1.50;;;;;;;7.58;100.00;98632.84;4142521;28;20229;-46
2023/01/12 04:41:22;;;;;;;8.70;2.20;;;;;;;7.57;100.00;98636.59;4170596;28;20227;-46
2023/01/12 04:43:24;;;;;;;2.92;1.50;;;;;;;7.58;100.00;98632.84;4152458;28;20291;-47
2023/01/12 04:45:30;;;;;;;3.47;2.38;;;;;;;7.56;100.00;98634.94;4141957;28;20213;-47
2023/01/12 04:47:32;;;;;;;8.45;1.50;;;;;;;7.49;100.00;98638.81;4146836;28;20209;-47
2023/01/12 04:49:34;;;;;;;2.08;1.25;;;;;;;7.43;100.00;98623.41;4144208;28;20236;-46
2023/01/12 04:51:36;;;;;;;2.80;1.95;;;;;;;7.42;100.00;98632.63;4138662;28;20237;-47
2023/01/12 04:53:37;;;;;;;7.72;2.05;;;;;;;7.44;100.00;98625.06;4139764;28;20299;-47
2023/01/12 04:55:41;;;;;;;2.45;1.92;;;;;;;7.42;100.00;98622.56;4139748;28;20304;-46
2023/01/12 04:57:43;;;;;;;6.30;1.88;;;;;;;7.38;100.00;98617.81;4136354;28;20205;-46
2023/01/12 04:59:48;;;;;;;2.67;1.35;;;;;;;7.41;100.00;98617.38;4139028;28;20212;-47
2023/01/12 05:01:49;;;;;;;3.55;1.70;;;;;;;7.40;100.00;98615.66;4137891;28;20643;-48
2023/01/12 05:03:59;;;;;;;2.85;1.65;;;;;;;7.39;100.00;98611.28;4137398;28;20205;-47
2023/01/12 05:06:02;;;;;;;1.80;1.52;;;;;;;7.38;100.00;98609.63;4151952;28;20221;-46
2023/01/12 05:10:25;;;;;;;8.20;1.73;;;;;;;7.41;100.00;98603.75;4137703;28;20223;-45
2023/01/12 05:12:27;;;;;;;5.53;1.98;;;;;;;7.36;100.00;98606.31;4134324;28;20221;-46
2023/01/12 05:14:28;;;;;;;2.10;1.23;;;;;;;7.40;100.00;98604.78;4139405;28;20206;-46
2023/01/12 05:16:30;;;;;;;3.10;2.90;;;;;;;7.40;100.00;98599.34;4137755;28;20240;-46
2023/01/12 05:18:32;;;;;;;9.80;1.95;;;;;;;7.40;100.00;98585.72;4135600;28;20588;-46
2023/01/12 05:20:34;;;;;;;4.30;1.73;;;;;;;7.39;100.00;98589.50;4137292;28;20232;-46
2023/01/12 05:22:36;;;;;;;3.83;2.60;;;;;;;7.43;100.00;98585.28;4138960;28;20225;-46
2023/01/12 05:24:37;;;;;;;3.35;1.90;;;;;;;7.45;100.00;98572.28;4137721;28;20220;-47
2023/01/12 05:26:39;;;;;;;2.95;1.48;;;;;;;7.48;100.00;98560.94;4135651;28;20305;-46
2023/01/12 05:28:41;;;;;;;2.78;2.22;;;;;;;7.46;100.00;98557.59;4135008;28;20667;-46
2023/01/12 05:30:42;;;;;;;7.28;2.05;;;;;;;7.46;100.00;98569.34;4139462;28;20229;-47
2023/01/12 05:32:44;;;;;;;3.90;2.00;;;;;;;7.46;100.00;98557.59;4135888;28;20626;-47
2023/01/12 05:34:46;;;;;;;1.75;1.65;;;;;;;7.51;100.00;98538.69;4138446;28;20224;-46
2023/01/12 05:36:48;;;;;;;2.35;2.15;;;;;;;7.52;100.00;98541.19;4138180;28;20252;-47
2023/01/12 05:38:50;;;;;;;3.83;1.95;;;;;;;7.53;100.00;98548.28;4152236;28;21115;-47
2023/01/12 05:40:52;;;;;;;8.13;2.40;;;;;;;7.57;100.00;98543.22;4133345;28;20313;-46
2023/01/12 05:45:14;;;;;;;3.80;1.83;;;;;;;7.59;100.00;98541.09;4134808;28;20690;-46
2023/01/12 05:47:15;;;;;;;3.95;1.65;;;;;;;7.61;100.00;98541.72;4136211;28;20243;-47
2023/01/12 05:49:17;;;;;;;4.20;1.92;;;;;;;7.60;100.00;98538.16;4151371;28;20201;-47
2023/01/12 05:51:19;;;;;;;3.90;1.77;;;;;;;7.62;100.00;98546.09;4135942;28;20229;-47
2023/01/12 05:53:21;;;;;;;1.92;1.77;;;;;;;7.63;100.00;98536.84;4135341;28;20349;-47
2023/01/12 05:55:23;;;;;;;6.43;2.05;;;;;;;7.62;100.00;98525.13;4138873;28;20289;-46
2023/01/12 05:57:24;;;;;;;3.63;1.23;;;;;;;7.65;100.00;98529.28;4136643;28;20292;-47
2023/01/12 05:59:26;;;;;;;8.07;1.25;;;;;;;7.70;100.00;98516.63;4133094;28;21022;-48
2023/01/12 06:01:28;;;;;;;4.50;1.80;;;;;;;7.68;100.00;98529.66;4121268;28;20816;-47
2023/01/12 06:03:30;;;;;;;2.70;1.58;;;;;;;7.68;100.00;98526.91;4134538;28;20209;-47
2023/01/12 06:05:32;;;;;;;2.08;1.63;;;;;;;7.62;100.00;98525.13;4129529;28;20249;-47
2023/01/12 06:07:34;;;;;;;3.67;2.00;;;;;;;7.61;100.00;98518.00;4130147;28;20425;-47
2023/01/12 06:09:36;;;;;;;7.10;2.17;;;;;;;7.57;100.00;98496.94;4127995;28;20744;-46
2023/01/12 06:13:59;;;;;;;2.05;1.20;;;;;;;7.53;100.00;98514.78;4132506;28;20648;-46
2023/01/12 06:16:07;;;;;;;1.92;1.73;;;;;;;7.49;100.00;98513.59;4132709;28;20241;-47
2023/01/12 06:18:09;;;;;;;4.28;2.20;;;;;;;7.47;100.00;98515.69;4138474;28;20705;-47
2023/01/12 06:20:15;;;;;;;1.73;1.60;;;;;;;7.46;100.00;98514.03;4133736;28;20206;-46
2023/01/12 06:22:18;;;;;;;2.90;1.85;;;;;;;7.42;100.00;98526.47;4137689;28;20233;-47
2023/01/12 06:24:20;;;;;;;3.88;1.30;;;;;;;7.38;100.00;98519.81;4136230;28;20559;-46
2023/01/12 06:26:22;;;;;;;3.85;1.98;;;;;;;7.40;100.00;98509.50;4127267;28;20696;-46
2023/01/12 06:28:26;;;;;;;1.88;1.60;;;;;;;7.37;100.00;98508.06;4141129;28;20330;-46
2023/01/12 06:30:30;;;;;;;2.65;1.40;;;;;;;7.36;100.00;98508.34;4137653;28;20209;-47
2023/01/12 06:32:32;;;;;;;1.83;1.35;;;;;;;7.40;100.00;98506.78;4133189;28;20209;-46
2023/01/12 06:34:34;;;;;;;1.63;1.13;;;;;;;7.38;100.00;98501.59;4128088;28;20252;-47
2023/01/12 06:36:36;;;;;;;3.30;1.25;;;;;;;7.44;100.00;98506.13;4166069;28;20664;-46
2023/01/12 06:38:42;;;;;;;7.35;1.48;;;;;;;7.40;100.00;98504.06;4163078;28;20229;-46
2023/01/12 06:40:44;;;;;;;4.40;1.88;;;;;;;7.37;100.00;98505.34;4133238;28;20320;-47
2023/01/12 06:42:46;;;;;;;1.65;1.20;;;;;;;7.34;100.00;98500.38;4131611;28;20210;-45
2023/01/12 06:44:48;;;;;;;3.35;2.33;;;;;;;7.36;100.00;98508.34;4122489;28;20222;-46
2023/01/12 06:46:50;;;;;;;4.38;1.65;;;;;;;7.36;100.00;98502.88;4133671;28;20819;-47
2023/01/12 06:48:55;;;;;;;3.88;1.55;;;;;;;7.37;100.00;98482.78;4136532;28;20215;-46
2023/01/12 06:51:03;;;;;;;3.85;2.17;;;;;;;7.41;100.00;98500.31;4131857;28;20238;-46
2023/01/12 06:53:06;;;;;;;1.13;1.10;;;;;;;7.39;100.00;98491.53;4136571;28;20299;-47
2023/01/12 06:55:08;;;;;;;7.05;1.50;;;;;;;7.39;100.00;98486.94;4132308;28;20217;-47
2023/01/12 06:57:10;;;;;;;4.03;1.63;;;;;;;7.32;100.00;98485.34;4136139;28;20213;-47
2023/01/12 06:59:18;;;;;;;2.53;1.17;;;;;;;7.32;100.00;98478.03;4136144;28;20331;-47
2023/01/12 07:01:20;;;;;;;4.30;1.67;;;;;;;7.28;100.00;98484.16;4119177;28;20261;-47
2023/01/12 07:03:22;;;;;;;1.52;0.95;;;;;;;7.24;100.00;98488.38;4132242;28;20208;-47
2023/01/12 07:05:24;;;;;;;4.07;1.15;;;;;;;7.26;100.00;98492.53;4140447;28;20238;-47
2023/01/12 07:07:26;;;;;;;3.35;1.20;;;;;;;7.23;100.00;98492.19;4140515;28;20209;-46
2023/01/12 07:09:31;;;;;;;0.88;0.88;;;;;;;7.21;100.00;98484.22;4138686;28;20213;-47
2023/01/12 07:11:33;;;;;;;1.55;1.27;;;;;;;7.23;100.00;98486.72;4137520;28;20233;-47
2023/01/12 07:13:34;;;;;;;1.23;1.00;;;;;;;7.24;100.00;98493.84;4133987;28;20283;-47
2023/01/12 07:15:36;;;;;;;1.30;1.20;;;;;;;7.23;100.00;98484.81;4128015;28;20211;-47
2023/01/12 07:17:38;;;;;;;1.48;1.42;;;;;;;7.21;100.00;98491.59;4133594;28;20252;-46
2023/01/12 07:19:40;;;;;;;2.33;0.80;;;;;;;7.24;100.00;98493.84;4135772;28;20687;-47
2023/01/12 07:21:43;;;;;;;2.05;1.20;;;;;;;7.20;100.00;98492.63;4136059;28;20795;-47
2023/01/12 07:23:44;;;;;;;1.92;1.20;;;;;;;7.19;100.00;98480.06;4136444;28;20222;-47
2023/01/12 07:25:49;;;;;;;2.03;1.33;;;;;;;7.20;100.00;98503.50;4134147;28;20299;-47
2023/01/12 07:27:56;;;;;;;3.33;1.75;;;;;;;7.17;100.00;98493.91;4137836;28;20653;-48
2023/01/12 07:29:58;;;;;;;2.35;0.93;;;;;;;7.18;100.00;98495.59;4135332;28;20220;-46
2023/01/12 07:32:00;;;;;;;1.48;0.80;;;;;;;7.15;100.00;98487.88;4133694;28;20650;-46
2023/01/12 07:34:03;;;;;;;1.48;1.15;;;;;;;7.15;100.00;98478.91;4151072;28;20216;-47
2023/01/12 07:36:08;;;;;;;1.10;1.02;;;;;;;7.19;100.00;98475.47;4135358;28;20659;-46
2023/01/12 07:38:11;;;;;;;4.15;0.80;;;;;;;7.22;100.00;98493.25;4139872;28;20220;-46
2023/01/12 07:40:23;;;;;;;2.60;0.90;;;;;;;7.26;100.00;98498.00;4149324;28;20212;-46
2023/01/12 07:42:25;;;;;;;7.20;1.30;;;;;;;7.22;100.00;98485.06;4140600;28;20209;-46
2023/01/12 07:44:31;;;;;;;2.28;2.13;;;;;;;7.22;100.00;98488.63;4151470;28;20215;-46
2023/01/12 07:46:33;;;;;;;3.05;0.93;;;;;;;7.25;100.00;98500.94;4138662;28;20214;-47
2023/01/12 07:48:49;;;;;;;0.98;0.88;;;;;;;7.28;100.00;98482.25;4138880;28;20216;-46
2023/01/12 07:50:52;;;;;;;0.85;0.85;;;;;;;7.30;100.00;98492.91;4119333;28;20245;-47
2023/01/12 07:52:54;;;;;;;2.40;0.88;;;;;;;7.36;100.00;98487.38;4135517;28;20600;-46
2023/01/12 07:54:57;;;;;;;4.47;0.70;;;;;;;7.30;100.00;98477.41;4140449;28;20219;-46
2023/01/12 07:57:12;;;;;;;0.90;0.90;;;;;;;7.28;100.00;98474.09;4136751;28;20263;-46
2023/01/12 07:59:14;;;;;;;2.28;1.40;;;;;;;7.25;100.00;98476.44;4135095;28;20272;-46
2023/01/12 08:01:16;;;;;;;1.67;1.23;;;;;;;7.29;100.00;98477.66;4152228;28;20228;-47
2023/01/12 08:03:18;;;;;;;0.95;0.95;;;;;;;7.31;100.00;98472.81;4135959;28;20607;-46
2023/01/12 08:05:21;;;;;;;1.10;1.10;;;;;;;7.31;100.00;98481.81;4140187;28;20214;-46
2023/01/12 08:07:25;;;;;;;0.98;0.90;;;;;;;7.35;100.00;98484.91;4153172;28;20890;-48
2023/01/12 08:09:40;;;;;;;2.10;1.15;;;;;;;7.35;100.00;98487.63;4151637;28;20220;-46
2023/01/12 08:11:42;;;;;;;1.60;1.10;;;;;;;7.40;100.00;98463.25;4133965;28;20252;-47
2023/01/12 08:13:44;;;;;;;13.98;1.33;;;;;;;7.43;100.00;98492.75;4131314;28;20328;-47
2023/01/12 08:15:48;;;;;;;0.82;0.82;;;;;;;7.42;100.00;98488.38;4138438;28;20237;-47
2023/01/12 08:18:04;;;;;;;0.80;0.80;;;;;;;7.44;100.00;98495.25;4132275;28;20208;-47
2023/01/12 08:20:37;;;;;;;0.98;0.93;;;;;;;7.46;100.00;98486.81;4128153;28;20244;-46
2023/01/12 08:23:05;;;;;;;4.28;1.02;;;;;;;7.47;100.00;98472.13;4140278;28;20247;-47
2023/01/12 08:25:19;;;;;;;6.13;1.00;;;;;;;7.49;100.00;98480.94;4136766;28;20229;-47
2023/01/12 08:27:38;;;;;;;0.68;0.68;;;;;;;7.46;100.00;98484.94;4147979;28;20349;-47
2023/01/12 08:29:49;;;;;;;5.80;1.10;;;;;;;7.40;100.00;98471.41;4134269;28;20208;-48
2023/01/12 08:32:03;;;;;;;1.90;1.02;;;;;;;7.40;100.00;98465.97;4146962;28;20224;-46
2023/01/12 08:34:06;;;;;;;1.80;1.10;;;;;;;7.35;100.00;98469.38;4135546;28;20217;-47
2023/01/12 08:36:11;;;;;;;1.38;1.17;;;;;;;7.39;100.00;98488.81;4138282;28;20213;-47
2023/01/12 08:38:30;;;;;;;1.35;1.25;;;;;;;7.41;100.00;98484.78;4135193;28;20210;-47
2023/01/12 08:42:55;;;;;;;1.45;1.30;;;;;;;7.45;100.00;98479.72;4148150;28;20599;-47
2023/01/12 08:44:57;;;;;;;2.35;1.50;;;;;;;7.47;100.00;98493.91;4136941;28;20699;-47
2023/01/12 08:46:58;;;;;;;1.23;0.95;;;;;;;7.49;100.00;98489.09;4134934;28;20712;-47
2023/01/12 08:49:13;;;;;;;9.82;2.65;;;;;;;7.47;100.00;98492.03;4153108;28;20205;-46
2023/01/12 08:51:23;;;;;;;0.88;0.80;;;;;;;7.53;100.00;98488.41;4138242;28;20261;-46
2023/01/12 08:53:25;;;;;;;2.47;1.67;;;;;;;7.51;100.00;98493.25;4138255;28;20213;-46
2023/01/12 08:55:26;;;;;;;2.08;1.70;;;;;;;7.56;100.00;98482.47;4140778;28;20307;-46
2023/01/12 08:57:28;;;;;;;1.45;1.27;;;;;;;7.54;100.00;98511.84;4133792;28;20312;-47
2023/01/12 08:59:30;;;;;;;2.10;1.20;;;;;;;7.55;100.00;98497.16;4133916;28;20237;-47
2023/01/12 09:01:33;;;;;;;1.50;1.40;;;;;;;7.56;100.00;98495.28;4138807;28;20268;-46
2023/01/12 09:03:45;;;;;;;2.65;1.45;;;;;;;7.57;100.00;98499.66;4142800;28;20220;-46
2023/01/12 09:06:15;;;;;;;8.32;1.40;;;;;;;7.55;100.00;98497.16;4136525;28;20240;-46
2023/01/12 09:08:28;;;;;;;10.48;2.53;;;;;;;7.51;100.00;98512.31;4138616;28;20960;-46
2023/01/12 09:10:51;;;;;;;3.45;1.67;;;;;;;7.50;100.00;98502.47;4138703;28;20280;-47
2023/01/12 09:12:53;;;;;;;13.18;2.15;;;;;;;7.58;100.00;98510.31;4140845;28;20213;-46
2023/01/12 09:14:55;;;;;;;2.72;1.45;;;;;;;7.56;100.00;98508.88;4126456;28;20205;-46
2023/01/12 09:16:57;;;;;;;2.70;1.55;;;;;;;7.56;100.00;98514.34;4138845;28;20293;-47
2023/01/12 09:19:16;;;;;;;10.82;3.00;;;;;;;7.58;100.00;98523.09;4136474;28;20233;-46
2023/01/12 09:21:29;;;;;;;1.25;1.20;;;;;;;7.57;100.00;98518.72;4138549;28;20236;-46
2023/01/12 09:23:32;;;;;;;2.65;1.70;;;;;;;7.55;100.00;98523.56;4135496;28;20288;-46
2023/01/12 09:25:34;;;;;;;1.85;1.48;;;;;;;7.60;100.00;98494.56;4139459;28;20591;-47
2023/01/12 09:27:41;;;;;;;1.85;1.38;;;;;;;7.57;100.00;98497.75;4155791;28;20819;-46
2023/01/12 09:29:50;;;;;;;10.73;2.28;;;;;;;7.59;100.00;98513.84;4142734;28;20201;-47
2023/01/12 09:31:53;;;;;;;1.52;1.42;;;;;;;7.60;100.00;98510.06;4142308;28;20232;-46
2023/01/12 09:33:55;;;;;;;3.97;1.20;;;;;;;7.60;100.00;98512.78;4143742;28;20217;-47
2023/01/12 09:36:07;;;;;;;1.98;1.50;;;;;;;7.60;100.00;98488.28;4143108;28;20696;-46
2023/01/12 09:38:12;;;;;;;5.07;1.20;;;;;;;7.59;100.00;98502.97;4157588;28;20209;-47
2023/01/12 09:40:15;;;;;;;2.05;1.17;;;;;;;7.61;100.00;98507.13;4143511;28;20287;-46
2023/01/12 09:47:04;;;;;;;3.85;1.10;;;;;;;7.59;100.00;98489.34;4135692;28;20253;-47
2023/01/12 09:49:06;;;;;;;0.80;0.80;;;;;;;7.60;100.00;98507.34;4134204;28;21697;-45
2023/01/12 09:51:22;;;;;;;2.65;0.95;;;;;;;7.57;100.00;98510.53;4169514;28;20228;-46
2023/01/12 09:53:33;;;;;;;6.07;1.50;;;;;;;7.58;100.00;98507.59;4137710;28;20205;-46
2023/01/12 09:55:49;;;;;;;2.92;1.02;;;;;;;7.56;100.00;98508.88;4138486;28;20210;-45
2023/01/12 09:58:03;;;;;;;1.27;1.08;;;;;;;7.58;100.00;98504.88;4136506;28;20691;-47
2023/01/12 10:00:16;;;;;;;1.90;1.20;;;;;;;7.59;100.00;98508.41;4136089;28;20221;-45
2023/01/12 10:02:19;;;;;;;3.47;0.98;;;;;;;7.61;100.00;98509.03;4142123;28;20221;-46
2023/01/12 10:04:21;;;;;;;1.80;1.45;;;;;;;7.62;100.00;98507.97;4138236;28;20205;-46
2023/01/12 10:06:23;;;;;;;4.38;1.48;;;;;;;7.57;100.00;98511.34;4136790;28;20757;-46
2023/01/12 10:08:31;;;;;;;1.38;1.27;;;;;;;7.59;100.00;98492.91;4137039;28;20210;-46
2023/01/12 10:10:36;;;;;;;1.05;1.00;;;;;;;7.57;100.00;98500.47;4140163;28;20210;-46
2023/01/12 10:12:50;;;;;;;1.20;1.10;;;;;;;7.60;100.00;98499.19;4153329;28;20710;-45
2023/01/12 10:15:21;;;;;;;3.42;1.00;;;;;;;7.61;100.00;98500.88;4141066;28;20329;-46